createdAt,value
2023-02-01T00:00:08.992Z,1005.25
2023-02-01T00:01:09.191Z,1005.28
2023-02-01T00:02:09.260Z,1005.26
2023-02-01T00:03:09.459Z,1005.22
2023-02-01T00:04:09.525Z,1005.20
2023-02-01T00:05:09.700Z,1005.26
2023-02-01T00:06:09.933Z,1005.29
2023-02-01T00:07:10.787Z,1005.26
2023-02-01T00:08:10.191Z,1005.19
2023-02-01T00:09:10.289Z,1005.37
2023-02-01T00:10:10.384Z,1005.42
2023-02-01T00:11:10.479Z,1005.35
2023-02-01T00:12:10.577Z,1005.41
2023-02-01T00:13:10.679Z,1005.34
2023-02-01T00:14:10.761Z,1005.23
2023-02-01T00:15:10.834Z,1005.42
2023-02-01T00:16:11.084Z,1005.35
2023-02-01T00:17:11.174Z,1005.27
2023-02-01T00:18:11.242Z,1005.38
2023-02-01T00:19:11.459Z,1005.30
2023-02-01T00:20:11.556Z,1005.27
2023-02-01T00:21:11.691Z,1005.28
2023-02-01T00:22:11.771Z,1005.31
2023-02-01T00:23:11.844Z,1005.21
2023-02-01T00:24:11.905Z,1005.24
2023-02-01T00:25:12.102Z,1005.30
2023-02-01T00:26:12.181Z,1005.31
2023-02-01T00:27:12.265Z,1005.30
2023-02-01T00:28:12.331Z,1005.28
2023-02-01T00:29:12.538Z,1005.19
2023-02-01T00:30:12.600Z,1005.23
2023-02-01T00:31:12.927Z,1005.18
2023-02-01T00:32:12.938Z,1005.30
2023-02-01T00:33:13.006Z,1005.18
2023-02-01T00:34:13.216Z,1005.27
2023-02-01T00:35:13.380Z,1005.25
2023-02-01T00:36:13.459Z,1005.20
2023-02-01T00:37:13.529Z,1005.23
2023-02-01T00:38:13.695Z,1005.32
2023-02-01T00:39:13.896Z,1005.24
2023-02-01T00:40:13.969Z,1005.28
2023-02-01T00:41:14.174Z,1005.47
2023-02-01T00:42:14.238Z,1005.34
2023-02-01T00:43:14.434Z,1005.34
2023-02-01T00:44:14.506Z,1005.28
2023-02-01T00:45:14.703Z,1005.23
2023-02-01T00:46:14.929Z,1005.32
2023-02-01T00:47:15.034Z,1005.33
2023-02-01T00:48:15.099Z,1005.52
2023-02-01T00:49:15.298Z,1005.22
2023-02-01T00:50:15.370Z,1005.33
2023-02-01T00:51:15.512Z,1005.27
2023-02-01T00:52:15.606Z,1005.32
2023-02-01T00:53:15.691Z,1005.38
2023-02-01T00:54:15.759Z,1005.31
2023-02-01T00:55:15.953Z,1005.33
2023-02-01T00:56:16.057Z,1005.33
2023-02-01T00:57:16.129Z,1005.47
2023-02-01T00:58:16.200Z,1005.50
2023-02-01T00:59:16.389Z,1005.53
2023-02-01T01:00:16.458Z,1005.51
2023-02-01T01:01:16.690Z,1005.53
2023-02-01T01:02:16.775Z,1005.52
2023-02-01T01:03:16.843Z,1005.51
2023-02-01T01:04:17.027Z,1005.47
2023-02-01T01:05:17.218Z,1005.53
2023-02-01T01:06:17.349Z,1005.54
2023-02-01T01:07:17.427Z,1005.55
2023-02-01T01:08:17.522Z,1005.42
2023-02-01T01:09:17.590Z,1005.55
2023-02-01T01:10:17.665Z,1005.49
2023-02-01T01:11:17.880Z,1005.42
2023-02-01T01:12:17.947Z,1005.44
2023-02-01T01:13:18.147Z,1005.42
2023-02-01T01:14:18.220Z,1005.41
2023-02-01T01:15:18.422Z,1005.40
2023-02-01T01:16:18.541Z,1005.45
2023-02-01T01:17:18.644Z,1005.40
2023-02-01T01:18:18.728Z,1005.39
2023-02-01T01:19:18.815Z,1005.39
2023-02-01T01:20:19.003Z,1005.28
2023-02-01T01:21:19.001Z,1005.28
2023-02-01T01:22:19.087Z,1005.28
2023-02-01T01:23:19.189Z,1005.27
2023-02-01T01:24:19.289Z,1005.23
2023-02-01T01:25:19.416Z,1005.24
2023-02-01T01:26:19.558Z,1005.23
2023-02-01T01:27:19.630Z,1005.22
2023-02-01T01:28:19.715Z,1005.25
2023-02-01T01:29:19.809Z,1005.21
2023-02-01T01:30:20.354Z,1005.21
2023-02-01T01:31:20.058Z,1005.17
2023-02-01T01:32:20.147Z,1005.08
2023-02-01T01:33:20.369Z,1004.97
2023-02-01T01:34:20.461Z,1005.07
2023-02-01T01:35:20.655Z,1005.08
2023-02-01T01:36:20.761Z,1005.07
2023-02-01T01:37:20.839Z,1005.03
2023-02-01T01:38:20.911Z,1005.05
2023-02-01T01:39:20.998Z,1005.10
2023-02-01T01:40:21.276Z,1005.03
2023-02-01T01:41:21.289Z,1005.06
2023-02-01T01:42:21.357Z,1005.10
2023-02-01T01:43:21.441Z,1004.99
2023-02-01T01:44:21.526Z,1005.00
2023-02-01T01:45:21.717Z,1005.01
2023-02-01T01:46:21.863Z,1005.01
2023-02-01T01:47:21.959Z,1004.97
2023-02-01T01:48:22.021Z,1005.03
2023-02-01T01:49:22.116Z,1004.93
2023-02-01T01:50:22.590Z,1004.88
2023-02-01T01:51:22.388Z,1004.93
2023-02-01T01:52:22.472Z,1004.99
2023-02-01T01:53:22.672Z,1005.06
2023-02-01T01:54:22.743Z,1004.95
2023-02-01T01:55:22.935Z,1005.01
2023-02-01T01:56:23.138Z,1004.99
2023-02-01T01:57:23.218Z,1004.95
2023-02-01T01:58:23.434Z,1005.07
2023-02-01T01:59:23.522Z,1004.99
2023-02-01T02:00:24.026Z,1005.01
2023-02-01T02:01:23.840Z,1005.07
2023-02-01T02:02:23.950Z,1005.04
2023-02-01T02:03:24.032Z,1005.05
2023-02-01T02:04:24.108Z,1005.00
2023-02-01T02:05:24.314Z,1005.09
2023-02-01T02:06:24.383Z,1005.17
2023-02-01T02:07:24.460Z,1005.10
2023-02-01T02:08:24.636Z,1005.12
2023-02-01T02:09:24.821Z,1005.19
2023-02-01T02:10:24.997Z,1005.13
2023-02-01T02:11:25.204Z,1005.12
2023-02-01T02:12:25.283Z,1005.20
2023-02-01T02:13:25.484Z,1005.13
2023-02-01T02:14:33.468Z,1005.17
2023-02-01T02:15:26.376Z,1005.19
2023-02-01T02:16:25.898Z,1005.17
2023-02-01T02:17:25.988Z,1005.06
2023-02-01T02:18:26.086Z,1005.20
2023-02-01T02:19:26.156Z,1005.12
2023-02-01T02:20:26.351Z,1005.12
2023-02-01T02:21:26.445Z,1005.08
2023-02-01T02:22:26.521Z,1005.17
2023-02-01T02:23:26.595Z,1005.15
2023-02-01T02:24:26.815Z,1005.15
2023-02-01T02:25:26.884Z,1005.04
2023-02-01T02:26:26.976Z,1005.20
2023-02-01T02:27:27.055Z,1005.09
2023-02-01T02:28:27.245Z,1005.08
2023-02-01T02:29:27.433Z,1005.12
2023-02-01T02:30:27.603Z,1005.10
2023-02-01T02:31:27.846Z,1005.10
2023-02-01T02:32:27.881Z,1005.01
2023-02-01T02:33:28.073Z,1005.04
2023-02-01T02:34:28.261Z,1005.04
2023-02-01T02:35:28.436Z,1005.05
2023-02-01T02:36:28.623Z,1005.12
2023-02-01T02:37:28.812Z,1005.10
2023-02-01T02:38:28.999Z,1005.13
2023-02-01T02:39:29.177Z,1005.00
2023-02-01T02:40:29.365Z,1004.99
2023-02-01T02:41:29.539Z,1005.03
2023-02-01T02:42:29.599Z,1005.02
2023-02-01T02:43:29.776Z,1004.95
2023-02-01T02:44:29.938Z,1005.06
2023-02-01T02:45:30.212Z,1004.99
2023-02-01T02:46:30.355Z,1005.04
2023-02-01T02:47:30.407Z,1004.85
2023-02-01T02:48:30.667Z,1004.91
2023-02-01T02:49:30.737Z,1004.89
2023-02-01T02:50:30.914Z,1004.99
2023-02-01T02:51:31.143Z,1004.97
2023-02-01T02:52:31.224Z,1004.92
2023-02-01T02:53:31.295Z,1004.93
2023-02-01T02:54:31.538Z,1004.92
2023-02-01T02:55:31.595Z,1004.91
2023-02-01T02:56:31.778Z,1004.84
2023-02-01T02:57:31.961Z,1004.96
2023-02-01T02:58:32.129Z,1004.94
2023-02-01T02:59:32.308Z,1004.97
2023-02-01T03:00:32.396Z,1004.96
2023-02-01T03:01:32.487Z,1004.96
2023-02-01T03:02:32.583Z,1004.95
2023-02-01T03:03:32.640Z,1004.94
2023-02-01T03:04:32.696Z,1004.86
2023-02-01T03:05:32.912Z,1004.84
2023-02-01T03:06:32.983Z,1004.86
2023-02-01T03:07:33.063Z,1004.76
2023-02-01T03:08:33.140Z,1004.81
2023-02-01T03:09:33.321Z,1004.72
2023-02-01T03:10:33.374Z,1004.78
2023-02-01T03:11:33.571Z,1004.81
2023-02-01T03:12:33.652Z,1004.75
2023-02-01T03:13:33.735Z,1004.68
2023-02-01T03:14:33.888Z,1004.75
2023-02-01T03:15:34.091Z,1004.76
2023-02-01T03:16:34.380Z,1004.75
2023-02-01T03:17:34.324Z,1004.75
2023-02-01T03:18:34.511Z,1004.61
2023-02-01T03:19:34.589Z,1004.72
2023-02-01T03:20:34.915Z,1004.63
2023-02-01T03:21:34.879Z,1004.67
2023-02-01T03:22:34.958Z,1004.72
2023-02-01T03:23:35.073Z,1004.56
2023-02-01T03:24:35.124Z,1004.48
2023-02-01T03:25:35.305Z,1004.46
2023-02-01T03:26:35.532Z,1004.48
2023-02-01T03:27:35.578Z,1004.40
2023-02-01T03:28:35.748Z,1004.34
2023-02-01T03:29:35.925Z,1004.30
2023-02-01T03:30:36.146Z,1004.30
2023-02-01T03:31:36.257Z,1004.35
2023-02-01T03:32:36.305Z,1004.33
2023-02-01T03:33:36.495Z,1004.32
2023-02-01T03:34:36.567Z,1004.30
2023-02-01T03:35:36.745Z,1004.25
2023-02-01T03:36:36.826Z,1004.24
2023-02-01T03:37:36.893Z,1004.30
2023-02-01T03:38:37.074Z,1004.26
2023-02-01T03:39:37.331Z,1004.30
2023-02-01T03:40:37.486Z,1004.28
2023-02-01T03:41:37.590Z,1004.25
2023-02-01T03:42:37.625Z,1004.22
2023-02-01T03:43:37.805Z,1004.19
2023-02-01T03:44:38.008Z,1004.28
2023-02-01T03:45:38.094Z,1004.28
2023-02-01T03:46:38.264Z,1004.21
2023-02-01T03:47:38.334Z,1004.22
2023-02-01T03:48:38.509Z,1004.22
2023-02-01T03:49:38.669Z,1004.22
2023-02-01T03:50:38.850Z,1004.27
2023-02-01T03:51:38.962Z,1004.24
2023-02-01T03:52:39.044Z,1004.23
2023-02-01T03:53:39.096Z,1004.23
2023-02-01T03:54:39.359Z,1004.22
2023-02-01T03:55:39.434Z,1004.22
2023-02-01T03:56:39.581Z,1004.33
2023-02-01T03:57:39.691Z,1004.33
2023-02-01T03:58:39.756Z,1004.22
2023-02-01T03:59:39.922Z,1004.20
2023-02-01T04:00:40.105Z,1004.27
2023-02-01T04:01:40.290Z,1004.24
2023-02-01T04:02:40.453Z,1004.24
2023-02-01T04:03:40.527Z,1004.30
2023-02-01T04:04:40.705Z,1004.35
2023-02-01T04:05:40.769Z,1004.40
2023-02-01T04:06:40.959Z,1004.25
2023-02-01T04:07:41.094Z,1004.22
2023-02-01T04:08:41.117Z,1004.22
2023-02-01T04:09:41.330Z,1004.27
2023-02-01T04:10:41.465Z,1004.21
2023-02-01T04:11:41.707Z,1004.25
2023-02-01T04:12:41.833Z,1004.20
2023-02-01T04:13:41.877Z,1004.07
2023-02-01T04:14:42.050Z,1004.16
2023-02-01T04:15:42.224Z,1004.18
2023-02-01T04:16:42.480Z,1004.34
2023-02-01T04:17:42.568Z,1004.18
2023-02-01T04:18:42.731Z,1004.23
2023-02-01T04:19:42.880Z,1004.26
2023-02-01T04:20:43.054Z,1004.25
2023-02-01T04:21:43.237Z,1004.24
2023-02-01T04:22:43.438Z,1004.27
2023-02-01T04:23:43.488Z,1004.21
2023-02-01T04:24:43.650Z,1004.24
2023-02-01T04:25:43.797Z,1004.21
2023-02-01T04:26:44.127Z,1004.27
2023-02-01T04:27:45.186Z,1004.26
2023-02-01T04:28:44.221Z,1004.28
2023-02-01T04:29:44.388Z,1004.22
2023-02-01T04:30:44.604Z,1004.25
2023-02-01T04:31:44.763Z,1004.22
2023-02-01T04:32:44.744Z,1004.19
2023-02-01T04:33:44.883Z,1004.20
2023-02-01T04:34:45.002Z,1004.17
2023-02-01T04:35:45.200Z,1004.24
2023-02-01T04:36:47.291Z,1004.21
2023-02-01T04:37:45.450Z,1004.16
2023-02-01T04:38:45.610Z,1004.15
2023-02-01T04:39:45.765Z,1004.16
2023-02-01T04:40:45.913Z,1004.36
2023-02-01T04:41:46.076Z,1004.12
2023-02-01T04:42:46.232Z,1004.14
2023-02-01T04:43:46.392Z,1004.11
2023-02-01T04:44:46.560Z,1004.14
2023-02-01T04:45:46.807Z,1004.12
2023-02-01T04:46:46.860Z,1004.12
2023-02-01T04:47:46.997Z,1004.14
2023-02-01T04:48:47.141Z,1004.20
2023-02-01T04:49:47.304Z,1004.13
2023-02-01T04:50:47.477Z,1004.18
2023-02-01T04:51:47.663Z,1004.09
2023-02-01T04:52:47.702Z,1004.07
2023-02-01T04:53:47.866Z,1004.05
2023-02-01T04:54:48.021Z,1004.03
2023-02-01T04:55:48.162Z,1004.03
2023-02-01T04:56:48.375Z,1004.06
2023-02-01T04:57:48.424Z,1004.00
2023-02-01T04:58:48.578Z,1003.97
2023-02-01T04:59:48.745Z,1003.97
2023-02-01T05:00:48.846Z,1004.00
2023-02-01T05:01:49.128Z,1003.99
2023-02-01T05:02:49.131Z,1003.95
2023-02-01T05:03:49.281Z,1003.89
2023-02-01T05:04:49.472Z,1003.97
2023-02-01T05:05:49.504Z,1003.98
2023-02-01T05:06:49.625Z,1003.94
2023-02-01T05:07:49.817Z,1003.88
2023-02-01T05:08:49.947Z,1003.82
2023-02-01T05:09:50.129Z,1003.92
2023-02-01T05:10:50.290Z,1003.79
2023-02-01T05:11:50.480Z,1003.85
2023-02-01T05:12:50.560Z,1003.88
2023-02-01T05:13:50.730Z,1003.76
2023-02-01T05:14:50.771Z,1003.82
2023-02-01T05:15:50.990Z,1003.74
2023-02-01T05:16:51.075Z,1003.76
2023-02-01T05:17:51.108Z,1003.79
2023-02-01T05:18:51.266Z,1003.72
2023-02-01T05:19:51.454Z,1003.79
2023-02-01T05:20:51.530Z,1003.74
2023-02-01T05:21:51.630Z,1003.73
2023-02-01T05:22:51.732Z,1003.67
2023-02-01T05:23:51.792Z,1003.65
2023-02-01T05:24:51.965Z,1003.70
2023-02-01T05:25:52.160Z,1003.68
2023-02-01T05:26:52.306Z,1003.62
2023-02-01T05:27:52.340Z,1003.78
2023-02-01T05:28:52.432Z,1003.69
2023-02-01T05:29:52.501Z,1003.65
2023-02-01T05:30:52.641Z,1003.61
2023-02-01T05:31:52.965Z,1003.59
2023-02-01T05:32:52.855Z,1003.68
2023-02-01T05:33:53.034Z,1003.61
2023-02-01T05:34:53.108Z,1003.65
2023-02-01T05:35:53.188Z,1003.59
2023-02-01T05:36:53.275Z,1003.65
2023-02-01T05:37:53.376Z,1003.61
2023-02-01T05:38:53.448Z,1003.68
2023-02-01T05:39:53.547Z,1003.50
2023-02-01T05:40:53.625Z,1003.64
2023-02-01T05:41:53.721Z,1003.71
2023-02-01T05:42:53.802Z,1003.64
2023-02-01T05:43:53.910Z,1003.65
2023-02-01T05:44:53.998Z,1003.56
2023-02-01T05:45:54.161Z,1003.65
2023-02-01T05:46:54.261Z,1003.64
2023-02-01T05:47:54.346Z,1003.60
2023-02-01T05:48:54.435Z,1003.65
2023-02-01T05:49:54.544Z,1003.54
2023-02-01T05:50:54.646Z,1003.66
2023-02-01T05:51:54.784Z,1003.49
2023-02-01T05:52:54.879Z,1003.58
2023-02-01T05:53:54.982Z,1003.51
2023-02-01T05:54:55.131Z,1003.55
2023-02-01T05:55:55.237Z,1003.49
2023-02-01T05:56:55.343Z,1003.55
2023-02-01T05:57:55.469Z,1003.49
2023-02-01T05:58:55.537Z,1003.45
2023-02-01T05:59:55.648Z,1003.51
2023-02-01T06:00:55.753Z,1003.45
2023-02-01T06:01:55.873Z,1003.41
2023-02-01T06:02:56.060Z,1003.41
2023-02-01T06:03:56.126Z,1003.44
2023-02-01T06:04:56.120Z,1003.41
2023-02-01T06:05:56.191Z,1003.44
2023-02-01T06:06:56.305Z,1003.44
2023-02-01T06:07:56.415Z,1003.48
2023-02-01T06:08:56.509Z,1003.50
2023-02-01T06:09:56.617Z,1003.38
2023-02-01T06:10:56.716Z,1003.47
2023-02-01T06:11:56.825Z,1003.38
2023-02-01T06:12:56.913Z,1003.43
2023-02-01T06:13:57.048Z,1003.48
2023-02-01T06:14:57.207Z,1003.53
2023-02-01T06:15:57.399Z,1003.43
2023-02-01T06:16:57.559Z,1003.44
2023-02-01T06:17:57.722Z,1003.46
2023-02-01T06:18:57.770Z,1003.41
2023-02-01T06:19:57.931Z,1003.42
2023-02-01T06:20:58.066Z,1003.46
2023-02-01T06:21:58.363Z,1003.47
2023-02-01T06:22:58.292Z,1003.38
2023-02-01T06:23:58.475Z,1003.45
2023-02-01T06:24:58.516Z,1003.40
2023-02-01T06:25:58.685Z,1003.38
2023-02-01T06:26:58.861Z,1003.40
2023-02-01T06:27:59.032Z,1003.34
2023-02-01T06:28:59.204Z,1003.39
2023-02-01T06:29:59.378Z,1003.34
2023-02-01T06:30:59.636Z,1003.41
2023-02-01T06:31:59.804Z,1003.34
2023-02-01T06:32:59.742Z,1003.40
2023-02-01T06:33:59.937Z,1003.29
2023-02-01T06:34:59.987Z,1003.26
2023-02-01T06:36:00.159Z,1003.33
2023-02-01T06:37:00.331Z,1003.30
2023-02-01T06:38:00.473Z,1003.28
2023-02-01T06:39:00.605Z,1003.40
2023-02-01T06:40:00.755Z,1003.30
2023-02-01T06:41:00.884Z,1003.32
2023-02-01T06:42:01.086Z,1003.40
2023-02-01T06:43:01.099Z,1003.30
2023-02-01T06:44:01.239Z,1003.28
2023-02-01T06:45:01.371Z,1003.31
2023-02-01T06:46:01.546Z,1003.19
2023-02-01T06:47:01.697Z,1003.24
2023-02-01T06:48:01.793Z,1003.31
2023-02-01T06:49:01.943Z,1003.25
2023-02-01T06:50:02.077Z,1003.30
2023-02-01T06:51:02.220Z,1003.36
2023-02-01T06:52:02.340Z,1003.26
2023-02-01T06:53:02.458Z,1003.19
2023-02-01T06:54:02.591Z,1003.11
2023-02-01T06:55:02.728Z,1003.13
2023-02-01T06:56:02.868Z,1003.15
2023-02-01T06:57:03.011Z,1003.05
2023-02-01T06:58:03.143Z,1003.08
2023-02-01T06:59:03.256Z,1003.10
2023-02-01T07:00:03.395Z,1003.09
2023-02-01T07:01:03.567Z,1003.00
2023-02-01T07:02:03.710Z,1003.09
2023-02-01T07:03:03.811Z,1003.05
2023-02-01T07:04:03.949Z,1003.03
2023-02-01T07:05:04.092Z,1003.05
2023-02-01T07:06:04.209Z,1003.05
2023-02-01T07:07:04.327Z,1003.06
2023-02-01T07:08:04.626Z,1002.99
2023-02-01T07:09:04.613Z,1002.98
2023-02-01T07:10:04.733Z,1003.03
2023-02-01T07:11:04.862Z,1002.99
2023-02-01T07:12:04.983Z,1002.98
2023-02-01T07:13:05.080Z,1003.02
2023-02-01T07:14:05.185Z,1002.95
2023-02-01T07:15:05.284Z,1003.03
2023-02-01T07:16:05.486Z,1003.00
2023-02-01T07:17:05.595Z,1003.03
2023-02-01T07:18:05.704Z,1002.94
2023-02-01T07:19:05.821Z,1002.84
2023-02-01T07:20:05.940Z,1002.92
2023-02-01T07:21:06.031Z,1002.91
2023-02-01T07:22:06.146Z,1003.00
2023-02-01T07:23:06.248Z,1002.98
2023-02-01T07:24:06.357Z,1002.98
2023-02-01T07:25:06.720Z,1002.87
2023-02-01T07:26:06.603Z,1002.86
2023-02-01T07:27:06.723Z,1002.88
2023-02-01T07:28:06.796Z,1002.85
2023-02-01T07:29:06.896Z,1002.81
2023-02-01T07:30:07.018Z,1002.72
2023-02-01T07:31:07.183Z,1002.74
2023-02-01T07:32:07.294Z,1002.75
2023-02-01T07:33:07.399Z,1002.75
2023-02-01T07:34:07.536Z,1002.66
2023-02-01T07:35:07.650Z,1002.66
2023-02-01T07:36:07.804Z,1002.63
2023-02-01T07:37:07.894Z,1002.65
2023-02-01T07:38:07.993Z,1002.66
2023-02-01T07:39:08.105Z,1002.71
2023-02-01T07:40:08.213Z,1002.68
2023-02-01T07:41:08.311Z,1002.68
2023-02-01T07:42:08.406Z,1002.73
2023-02-01T07:43:08.504Z,1002.77
2023-02-01T07:44:08.628Z,1002.73
2023-02-01T07:45:20.819Z,1002.75
2023-02-01T07:46:09.927Z,1002.91
2023-02-01T07:47:09.059Z,1002.74
2023-02-01T07:48:09.184Z,1002.73
2023-02-01T07:49:09.305Z,1002.75
2023-02-01T07:50:09.439Z,1002.70
2023-02-01T07:51:09.541Z,1002.78
2023-02-01T07:52:09.653Z,1002.83
2023-02-01T07:53:09.759Z,1002.78
2023-02-01T07:54:09.897Z,1002.80
2023-02-01T07:55:10.018Z,1002.66
2023-02-01T07:56:10.156Z,1002.75
2023-02-01T07:57:10.279Z,1002.63
2023-02-01T07:58:10.426Z,1002.68
2023-02-01T07:59:10.547Z,1002.78
2023-02-01T08:00:10.697Z,1002.71
2023-02-01T08:01:10.919Z,1002.73
2023-02-01T08:02:11.023Z,1002.68
2023-02-01T08:03:11.070Z,1002.70
2023-02-01T08:04:11.232Z,1002.66
2023-02-01T08:05:11.383Z,1002.60
2023-02-01T08:06:11.499Z,1002.64
2023-02-01T08:07:11.633Z,1002.63
2023-02-01T08:08:11.784Z,1002.63
2023-02-01T08:09:11.991Z,1002.59
2023-02-01T08:10:12.025Z,1002.58
2023-02-01T08:11:12.152Z,1002.59
2023-02-01T08:12:12.310Z,1002.66
2023-02-01T08:13:12.444Z,1002.63
2023-02-01T08:14:12.606Z,1002.59
2023-02-01T08:15:19.732Z,1002.65
2023-02-01T08:16:12.854Z,1002.61
2023-02-01T08:17:13.017Z,1002.82
2023-02-01T08:18:13.151Z,1002.67
2023-02-01T08:19:13.303Z,1002.65
2023-02-01T08:20:13.477Z,1002.55
2023-02-01T08:21:13.603Z,1002.68
2023-02-01T08:22:13.754Z,1002.62
2023-02-01T08:23:13.897Z,1002.63
2023-02-01T08:24:14.048Z,1002.66
2023-02-01T08:25:14.193Z,1002.66
2023-02-01T08:26:14.501Z,1002.64
2023-02-01T08:27:14.456Z,1002.61
2023-02-01T08:28:14.592Z,1002.59
2023-02-01T08:29:14.779Z,1002.61
2023-02-01T08:30:14.922Z,1002.61
2023-02-01T08:31:15.099Z,1002.59
2023-02-01T08:32:15.226Z,1002.66
2023-02-01T08:33:15.375Z,1002.62
2023-02-01T08:34:15.550Z,1002.53
2023-02-01T08:35:15.698Z,1002.67
2023-02-01T08:36:15.840Z,1002.62
2023-02-01T08:37:15.981Z,1002.66
2023-02-01T08:38:16.167Z,1002.69
2023-02-01T08:39:16.356Z,1002.72
2023-02-01T08:40:16.374Z,1002.82
2023-02-01T08:41:16.516Z,1002.64
2023-02-01T08:42:16.658Z,1002.69
2023-02-01T08:43:16.810Z,1002.78
2023-02-01T08:44:16.956Z,1002.76
2023-02-01T08:45:17.101Z,1002.80
2023-02-01T08:46:17.285Z,1002.76
2023-02-01T08:47:17.450Z,1002.76
2023-02-01T08:48:17.472Z,1002.70
2023-02-01T08:49:17.626Z,1002.79
2023-02-01T08:50:17.786Z,1002.72
2023-02-01T08:51:17.947Z,1002.82
2023-02-01T08:52:18.055Z,1002.77
2023-02-01T08:53:18.195Z,1002.78
2023-02-01T08:54:18.345Z,1002.85
2023-02-01T08:55:18.494Z,1002.98
2023-02-01T08:56:18.621Z,1002.81
2023-02-01T08:57:18.775Z,1002.86
2023-02-01T08:58:18.936Z,1002.91
2023-02-01T08:59:19.081Z,1002.87
2023-02-01T09:00:19.213Z,1002.89
2023-02-01T09:01:19.423Z,1003.00
2023-02-01T09:02:19.422Z,1002.99
2023-02-01T09:03:19.620Z,1002.96
2023-02-01T09:04:19.799Z,1003.00
2023-02-01T09:05:19.823Z,1003.02
2023-02-01T09:06:19.964Z,1002.98
2023-02-01T09:07:20.094Z,1002.99
2023-02-01T09:08:20.229Z,1003.05
2023-02-01T09:09:20.405Z,1003.01
2023-02-01T09:10:29.972Z,1003.08
2023-02-01T09:11:21.770Z,1003.10
2023-02-01T09:12:20.903Z,1003.07
2023-02-01T09:13:21.054Z,1003.05
2023-02-01T09:14:21.209Z,1003.08
2023-02-01T09:15:21.370Z,1003.06
2023-02-01T09:16:21.607Z,1003.00
2023-02-01T09:17:21.706Z,1003.10
2023-02-01T09:18:21.853Z,1003.17
2023-02-01T09:19:26.258Z,1003.07
2023-02-01T09:20:22.899Z,1003.14
2023-02-01T09:21:22.233Z,1003.13
2023-02-01T09:22:22.356Z,1003.16
2023-02-01T09:23:22.498Z,1003.16
2023-02-01T09:24:22.659Z,1003.24
2023-02-01T09:25:22.838Z,1003.28
2023-02-01T09:26:31.159Z,1003.33
2023-02-01T09:27:24.029Z,1003.22
2023-02-01T09:28:23.141Z,1003.24
2023-02-01T09:29:23.303Z,1003.30
2023-02-01T09:30:23.746Z,1003.20
2023-02-01T09:31:23.618Z,1003.28
2023-02-01T09:32:23.876Z,1003.30
2023-02-01T09:33:23.922Z,1003.40
2023-02-01T09:34:24.039Z,1003.31
2023-02-01T09:35:24.165Z,1003.35
2023-02-01T09:36:24.280Z,1003.35
2023-02-01T09:37:24.380Z,1003.41
2023-02-01T09:38:24.485Z,1003.45
2023-02-01T09:39:24.593Z,1003.42
2023-02-01T09:40:25.191Z,1003.36
2023-02-01T09:41:24.963Z,1003.37
2023-02-01T09:42:25.027Z,1003.45
2023-02-01T09:43:25.140Z,1003.41
2023-02-01T09:44:27.696Z,1003.50
2023-02-01T09:45:25.340Z,1003.47
2023-02-01T09:46:25.529Z,1003.45
2023-02-01T09:47:25.569Z,1003.45
2023-02-01T09:48:25.678Z,1003.60
2023-02-01T09:49:25.884Z,1003.60
2023-02-01T09:50:26.252Z,1003.59
2023-02-01T09:51:26.044Z,1003.54
2023-02-01T09:52:26.176Z,1003.52
2023-02-01T09:53:26.314Z,1003.52
2023-02-01T09:54:26.456Z,1003.60
2023-02-01T09:55:26.564Z,1003.57
2023-02-01T09:56:26.654Z,1003.51
2023-02-01T09:57:26.768Z,1003.59
2023-02-01T09:58:26.873Z,1003.65
2023-02-01T09:59:27.019Z,1003.55
2023-02-01T10:00:27.393Z,1003.69
2023-02-01T10:01:27.383Z,1003.59
2023-02-01T10:02:27.433Z,1003.61
2023-02-01T10:03:27.624Z,1003.66
2023-02-01T10:04:27.791Z,1003.47
2023-02-01T10:05:27.786Z,1003.64
2023-02-01T10:06:30.222Z,1003.64
2023-02-01T10:07:28.029Z,1003.65
2023-02-01T10:08:28.116Z,1003.65
2023-02-01T10:09:28.235Z,1003.68
2023-02-01T10:10:28.336Z,1003.63
2023-02-01T10:11:28.528Z,1003.75
2023-02-01T10:12:30.165Z,1003.60
2023-02-01T10:13:28.628Z,1003.64
2023-02-01T10:14:28.740Z,1003.60
2023-02-01T10:15:28.873Z,1003.60
2023-02-01T10:16:29.045Z,1003.63
2023-02-01T10:17:29.164Z,1003.62
2023-02-01T10:18:29.333Z,1003.51
2023-02-01T10:19:29.567Z,1003.66
2023-02-01T10:20:29.634Z,1003.59
2023-02-01T10:21:29.835Z,1003.66
2023-02-01T10:22:49.596Z,1003.62
2023-02-01T10:23:34.263Z,1003.64
2023-02-01T10:24:30.407Z,1003.61
2023-02-01T10:25:30.351Z,1003.57
2023-02-01T10:26:30.370Z,1003.56
2023-02-01T10:27:30.493Z,1003.63
2023-02-01T10:28:30.585Z,1003.64
2023-02-01T10:29:30.707Z,1003.64
2023-02-01T10:30:34.546Z,1003.55
2023-02-01T10:31:31.051Z,1003.59
2023-02-01T10:32:31.064Z,1003.67
2023-02-01T10:33:31.179Z,1003.69
2023-02-01T10:34:31.278Z,1003.69
2023-02-01T10:35:31.506Z,1003.53
2023-02-01T10:36:31.780Z,1003.61
2023-02-01T10:37:31.623Z,1003.55
2023-02-01T10:38:31.767Z,1003.62
2023-02-01T10:39:31.870Z,1003.62
2023-02-01T10:40:31.924Z,1003.67
2023-02-01T10:41:32.115Z,1003.70
2023-02-01T10:42:32.181Z,1003.58
2023-02-01T10:43:32.274Z,1003.84
2023-02-01T10:44:32.365Z,1003.64
2023-02-01T10:45:32.473Z,1003.69
2023-02-01T10:46:32.576Z,1003.75
2023-02-01T10:47:32.628Z,1003.79
2023-02-01T10:48:32.716Z,1003.73
2023-02-01T10:49:32.825Z,1003.74
2023-02-01T10:50:32.929Z,1003.61
2023-02-01T10:51:33.026Z,1003.64
2023-02-01T10:52:33.135Z,1003.59
2023-02-01T10:53:33.276Z,1003.63
2023-02-01T10:54:33.417Z,1003.60
2023-02-01T10:55:33.514Z,1003.65
2023-02-01T10:56:33.620Z,1003.72
2023-02-01T10:57:33.731Z,1003.61
2023-02-01T10:58:33.833Z,1003.68
2023-02-01T10:59:33.920Z,1003.69
2023-02-01T11:00:34.031Z,1003.68
2023-02-01T11:01:34.171Z,1003.70
2023-02-01T11:02:34.326Z,1003.73
2023-02-01T11:03:35.385Z,1003.76
2023-02-01T11:04:34.623Z,1003.69
2023-02-01T11:05:34.746Z,1003.65
2023-02-01T11:06:34.852Z,1003.61
2023-02-01T11:07:34.956Z,1003.56
2023-02-01T11:08:35.080Z,1003.51
2023-02-01T11:09:35.195Z,1003.51
2023-02-01T11:10:35.282Z,1003.54
2023-02-01T11:11:35.365Z,1003.58
2023-02-01T11:12:35.437Z,1003.56
2023-02-01T11:13:35.515Z,1003.53
2023-02-01T11:14:35.634Z,1003.54
2023-02-01T11:15:35.730Z,1003.52
2023-02-01T11:16:35.854Z,1003.49
2023-02-01T11:17:35.954Z,1003.52
2023-02-01T11:18:36.011Z,1003.58
2023-02-01T11:19:36.118Z,1003.51
2023-02-01T11:20:36.231Z,1003.51
2023-02-01T11:21:37.489Z,1003.50
2023-02-01T11:22:36.426Z,1003.45
2023-02-01T11:23:36.491Z,1003.35
2023-02-01T11:24:36.594Z,1003.44
2023-02-01T11:25:36.652Z,1003.47
2023-02-01T11:26:36.732Z,1003.35
2023-02-01T11:27:43.040Z,1003.35
2023-02-01T11:28:37.935Z,1003.45
2023-02-01T11:29:37.110Z,1003.40
2023-02-01T11:30:37.168Z,1003.38
2023-02-01T11:31:37.536Z,1003.24
2023-02-01T11:32:37.487Z,1003.32
2023-02-01T11:33:37.543Z,1003.32
2023-02-01T11:34:37.698Z,1003.25
2023-02-01T11:35:37.855Z,1003.22
2023-02-01T11:36:37.980Z,1003.24
2023-02-01T11:37:38.128Z,1003.16
2023-02-01T11:38:38.235Z,1003.15
2023-02-01T11:39:38.395Z,1003.10
2023-02-01T11:40:38.423Z,1003.11
2023-02-01T11:41:38.546Z,1003.07
2023-02-01T11:42:38.680Z,1002.94
2023-02-01T11:43:38.805Z,1002.98
2023-02-01T11:44:38.950Z,1002.97
2023-02-01T11:45:39.068Z,1003.03
2023-02-01T11:46:39.189Z,1003.04
2023-02-01T11:47:39.297Z,1002.99
2023-02-01T11:48:39.435Z,1002.98
2023-02-01T11:49:39.601Z,1003.03
2023-02-01T11:50:39.609Z,1002.94
2023-02-01T11:51:39.753Z,1002.93
2023-02-01T11:52:39.896Z,1002.92
2023-02-01T11:53:39.997Z,1002.89
2023-02-01T11:54:41.096Z,1002.89
2023-02-01T11:55:40.272Z,1002.82
2023-02-01T11:56:40.289Z,1002.98
2023-02-01T11:57:40.413Z,1002.90
2023-02-01T11:58:40.547Z,1002.88
2023-02-01T11:59:43.101Z,1002.88
2023-02-01T12:00:41.765Z,1002.87
2023-02-01T12:01:40.949Z,1002.80
2023-02-01T12:02:40.977Z,1002.89
2023-02-01T12:03:41.087Z,1002.88
2023-02-01T12:04:41.217Z,1002.83
2023-02-01T12:05:41.374Z,1002.92
2023-02-01T12:06:41.381Z,1002.81